DANE POGODOWE

WCZORAJ
Time Temp. Dewp. Hum. Kierunek Prędkość W Wind gust Bar. 1h Prec. 24h Prec.
00:01 3.2 0.8 84 339 2.8 5 1014.8 0.3030 0.0000
00:11 3.4 1 84 345 3.3 5.8 1014.9 0.5050 0.2000
00:21 3.5 1.1 84 28 3.1 5.8 1015.1 0.5050 0.3000
00:31 3.2 0.6 83 24 2.8 5.8 1015.1 0.5050 0.3000
00:41 3 0.4 83 26 2.2 5 1015.3 0.5050 0.4000
00:51 3 0.4 83 32 2.8 5.3 1015.4 0.4040 0.4000
01:01 2.9 0.5 84 27 2.2 4.2 1015.5 0.4040 0.4000
01:12 2.8 0.4 84 37 1.4 2.8 1015.6 0.3030 0.5000
01:22 2.8 0.5 85 45 1.1 2.2 1015.6 0.2020 0.5000
01:31 2.6 0.2 84 33 0.3 1.4 1015.7 0.2020 0.5000
01:41 2.4 0.1 85 0 0.8 1015.8 0.1010 0.5000
01:52 2.2 -0.2 84 0 0.8 1015.9 0.1010 0.5000
02:02 2 -0.4 84 233 0.3 1.4 1015.9 0.1010 0.5000
02:11 1.7 -0.6 84 245 0.8 1.1 1015.9 0.0000 0.5000
02:22 1.5 -0.7 85 270 0.3 0.8 1016 0.0000 0.5000
02:32 1.5 -0.5 86 242 0.8 1.9 1016 0.0000 0.5000
02:42 1.5 -0.5 86 291 0.8 1.4 1016.1 0.0000 0.5000
02:51 1.5 -0.5 86 270 0.3 0.8 1016.2 0.0000 0.5000
03:02 1.4 -0.6 86 356 0.8 1.9 1016.3 0.1010 0.6000
03:12 1.5 -0.4 87 321 1.1 3.1 1016.3 0.1010 0.6000
03:17 1.6 -0.1 88 334 1.9 6.4 1016.3 0.1010 0.6000
03:27 2.2 0.6 89 330 5 8.6 1016.6 0.3030 0.8000
03:37 2.4 0.6 88 45 1.9 3.9 1016.3 0.6060 1.1000
03:47 2.3 0.4 87 296 1.1 1.9 1016.5 0.6060 1.1000
03:57 2 0.1 87 270 0.3 1.1 1016.5 0.5050 1.1000
04:07 1.8 -0.1 87 325 0.3 1.1 1016.5 0.5050 1.1000
04:17 1.6 -0.3 87 303 0.3 0.8 1016.6 0.5050 1.1000
04:27 1.5 -0.4 87 225 0.3 0.8 1016.6 0.1010 1.1000
04:37 1.3 -0.5 87 202 0.3 0.8 1016.6 0.0000 1.1000
04:47 1.2 -0.5 88 200 0.3 0.8 1016.7 0.0000 1.1000
04:57 1.1 -0.6 88 214 0.3 0.8 1016.9 0.0000 1.1000
05:07 1 -0.7 88 230 0.3 0.8 1017.1 0.0000 1.1000
05:18 0.9 -0.8 88 231 0.3 0.8 1017.1 0.0000 1.1000
05:28 0.8 -0.7 89 208 0.8 1.9 1017.2 0.0000 1.1000
05:37 0.8 -0.7 89 221 1.1 1.9 1017.2 0.0000 1.1000
05:48 0.8 -0.7 89 225 1.1 1.9 1017.2 0.0000 1.1000
05:58 0.8 -0.7 89 222 1.4 2.8 1017.2 0.0000 1.1000
06:08 0.8 -0.7 89 225 1.9 2.8 1017.4 0.0000 1.1000
06:17 0.7 -0.8 89 220 1.9 3.1 1017.4 0.0000 1.1000
06:28 0.7 -0.7 90 228 0.8 2.2 1017.5 0.0000 1.1000
06:38 0.7 -0.8 89 209 0.8 1.9 1017.6 0.0000 1.1000
06:48 0.6 -0.7 90 175 0.3 1.1 1017.7 0.0000 1.1000
06:58 0.6 -0.7 90 186 0.3 0.8 1017.8 0.0000 1.1000
07:08 0.7 -0.7 90 165 0.3 0.8 1017.9 0.0000 1.1000
07:18 0.8 -0.6 90 174 0.3 0.3 1018 0.0000 1.1000
07:28 0.9 -0.5 90 210 0.3 0.8 1018.1 0.0000 1.1000
07:39 1 -0.4 90 270 0.3 1.1 1018.3 0.0000 1.1000
07:48 1.1 -0.3 90 270 0.3 1.1 1018.4 0.0000 1.1000
07:58 1.5 0.3 92 270 0.3 1.4 1018.5 0.0000 1.1000
08:09 2.5 1.5 93 194 0.8 1.4 1018.6 0.0000 1.1000
08:19 3.4 2.4 93 191 0.8 1.4 1018.7 0.0000 1.1000
08:28 3.7 2.2 90 192 0.8 1.4 1018.8 0.0000 1.1000
08:38 3.8 2.3 90 209 1.1 2.2 1018.9 0.0000 1.1000
08:49 3.9 2.3 89 213 0.8 1.4 1019 0.1010 1.2000
08:59 4.1 2.6 90 240 1.4 2.8 1019.1 0.1010 1.2000
09:08 4.3 2.8 90 227 2.2 3.3 1019.2 0.1010 1.2000
09:19 4.5 3 90 257 1.9 3.1 1019.3 0.2020 1.3000
09:29 4.7 3.4 91 264 2.2 3.9 1019.4 0.3030 1.4000
09:39 5.1 3.8 91 254 2.8 5 1019.3 0.4040 1.5000
09:48 5.5 4.1 91 258 3.1 4.4 1019.3 0.5050 1.7000
09:59 5.8 4.4 91 251 2.8 4.4 1019.5 0.7070 1.9000
10:09 6 4.6 91 254 2.8 4.4 1019.7 0.8080 2.0000
10:19 6.1 4.6 90 247 2.8 5 1019.7 0.9090 2.2000
10:29 6.3 4.8 90 242 3.9 6.4 1019.7 0.9090 2.3000
10:39 6.5 5 90 241 3.1 5.3 1019.8 0.9090 2.5000
10:49 6.7 5.2 90 254 3.3 6.4 1019.8 0.9090 2.7000
10:59 6.7 5 89 256 3.3 6.1 1020 0.8080 2.8000
11:10 7.1 5.6 90 257 4.2 7.2 1020.1 0.7070 2.9000
11:19 7.4 5.9 90 254 3.9 6.9 1020.1 0.7070 2.9000
11:29 7.6 5.9 89 261 3.9 6.4 1020 0.6060 3.0000
11:40 7.7 5.8 88 267 3.1 5.8 1020.2 0.5050 3.1000
11:50 8.1 6.2 88 266 3.9 6.4 1020.1 0.4040 3.1000
12:00 8.4 6.4 87 259 4.4 8.3 1020.3 0.3030 3.1000
12:09 8.3 5.9 85 260 4.2 7.2 1020.3 0.2020 3.1000
12:20 8.1 5.7 85 257 4.2 8.1 1020.4 0.1010 3.1000
12:30 8 5.5 84 259 5 6.9 1020.4 0.0000 3.1000
12:40 8.1 5.9 86 261 3.3 5.3 1020.4 0.0000 3.1000
12:50 8.5 6.1 85 249 3.9 7.5 1020.6 0.0000 3.1000
13:00 8.5 6 84 255 3.3 6.1 1020.7 0.0000 3.1000
13:10 8.6 6.1 84 235 4.4 7.5 1020.7 0.0000 3.1000
13:20 8.8 6.2 84 240 4.2 8.1 1020.7 0.0000 3.1000
13:31 9.1 6.4 83 258 4.4 6.9 1020.6 0.0000 3.1000
13:40 9.3 6.6 83 261 3.9 7.5 1020.7 0.0000 3.1000
13:50 9.8 7.2 84 263 3.9 8.6 1020.7 0.0000 3.1000
14:01 10 7.2 83 259 3.9 6.9 1020.7 0.0000 3.1000
14:11 10.2 7.4 83 257 3.1 5.8 1020.8 0.0000 3.1000
14:20 10.6 7.8 83 262 3.9 8.1 1020.9 0.0000 3.1000
14:30 10.9 8 82 277 3.9 7.2 1021 0.0000 3.1000
14:41 11.1 8.1 82 274 4.2 8.6 1021.1 0.0000 3.1000
14:51 11.3 8.2 81 282 4.4 8.1 1021.1 0.0000 3.1000
15:01 10.9 7.6 80 270 4.2 6.9 1021.3 0.0000 3.1000
15:11 10.7 7.4 80 280 2.2 5 1021.4 0.0000 3.1000
15:21 10.9 7.8 81 272 4.2 8.3 1021.5 0.0000 3.1000
15:31 10.8 7.5 80 278 4.4 7.5 1021.5 0.0000 3.1000
15:41 10.6 7.3 80 273 3.3 7.5 1021.5 0.0000 3.1000
15:51 10.6 7.7 82 276 3.3 7.2 1021.7 0.0000 3.1000
16:01 10.8 7.7 81 290 3.3 6.9 1021.6 0.0000 3.1000
16:11 10.5 7.4 81 294 3.3 6.9 1021.7 0.0000 3.1000
16:22 10.4 7.3 81 285 3.1 6.1 1021.7 0.0000 3.1000
16:32 10.4 7.3 81 288 4.2 7.2 1021.7 0.0000 3.1000
16:41 10.4 7.3 81 285 2.8 5.8 1021.6 0.0000 3.1000
16:51 10.2 7.1 81 278 2.2 3.9 1021.7 0.0000 3.1000
17:02 10.1 7 81 277 2.8 5.3 1021.7 0.0000 3.1000
17:12 10 6.9 81 277 2.2 4.2 1021.7 0.0000 3.1000
17:21 10 6.9 81 289 3.1 6.1 1021.8 0.0000 3.1000
17:32 10 7.1 82 281 3.1 6.1 1021.9 0.0000 3.1000
17:42 10.1 7.2 82 286 2.8 5.3 1022 0.0000 3.1000
17:52 10.1 7 81 277 2.8 5 1022 0.0000 3.1000
18:02 10 6.9 81 273 3.3 6.9 1022 0.0000 3.1000
18:12 9.9 6.8 81 270 2.8 4.4 1022 0.0000 3.1000
18:22 9.7 6.6 81 267 2.8 5 1022.1 0.0000 3.1000
18:32 9.5 6.4 81 275 2.2 4.4 1022.1 0.0000 3.1000
18:43 9.3 6.4 82 280 2.2 5 1022.1 0.0000 3.1000
18:52 9.2 6.3 82 294 2.8 5 1022.4 0.0000 3.1000
19:02 9 6.1 82 286 2.8 5.8 1022.4 0.0000 3.1000
19:12 8.6 5.7 82 276 2.2 4.4 1022.5 0.0000 3.1000
19:23 8.5 5.8 83 265 2.2 4.2 1022.5 0.0000 3.1000
19:32 8.3 5.6 83 275 2.8 5 1022.6 0.0000 3.1000
19:42 8.1 5.6 84 270 2.2 3.9 1022.6 0.0000 3.1000
19:53 7.8 5.3 84 280 2.2 5.3 1022.7 0.0000 3.1000
20:03 7.6 5.2 85 281 2.2 4.2 1022.8 0.0000 3.1000
20:13 7.4 5 85 285 1.4 3.9 1023 0.0000 3.1000
20:22 7.2 4.9 85 286 2.2 3.9 1023.1 0.0000 3.1000
20:33 7 4.8 86 286 1.9 3.9 1023.2 0.0000 3.1000
20:43 6.9 4.7 86 270 1.9 3.9 1023.4 0.0000 3.1000
20:53 6.8 4.8 87 270 1.9 3.3 1023.4 0.0000 3.1000
21:03 6.7 4.7 87 262 1.9 3.9 1023.5 0.0000 3.1000
21:13 6.7 4.7 87 270 1.9 3.1 1023.5 0.0000 3.1000
21:23 6.6 4.8 88 270 1.4 3.3 1023.6 0.0000 3.1000
21:33 6.5 4.7 88 263 1.9 3.9 1023.7 0.0000 3.1000
21:44 6.4 4.6 88 259 1.9 3.3 1023.9 0.0000 3.1000
21:53 6.4 4.6 88 261 1.9 3.9 1024.1 0.0000 3.1000
22:03 6.3 4.6 89 255 1.4 3.1 1024.2 0.0000 3.1000
22:14 6.2 4.5 89 257 1.4 3.1 1024.2 0.0000 3.1000
22:24 6.1 4.4 89 244 2.2 3.3 1024.3 0.0000 3.1000
22:33 6.1 4.6 90 248 1.9 3.9 1024.4 0.0000 3.1000
22:43 6.1 4.6 90 247 2.2 3.9 1024.5 0.0000 3.1000
22:54 6.1 4.6 90 257 2.2 3.9 1024.6 0.0000 3.1000
23:04 6.1 4.7 91 246 2.2 3.3 1024.5 0.0000 3.1000
23:14 6.1 4.7 91 259 2.2 4.2 1024.8 0.0000 3.1000
23:24 6.1 4.7 91 261 2.2 5 1024.8 0.0000 3.1000
23:34 6 4.6 91 250 1.9 3.9 1024.8 0.0000 3.1000
23:44 6 4.6 91 241 1.9 4.2 1024.9 0.0000 3.1000
23:54 5.9 4.5 91 242 1.9 3.9 1025 0.0000

STATYSTYKA DNIA

2020-04-04
TEMPERATURA
ŚREDNIA
5.7
MAKSIMUM
11.3
14:51
MINIMUM
0.6
06:48
CIŚNIENIE
ŚREDNIA
1019.9
MAKSIMUM
1025.0
23:54
MINIMUM
1014.8
00:01
PUNKT ROSY
ŚREDNIA
3.6
MAKSIMUM
8.2
14:51
MINIMUM
-0.8
05:18
WILGOTNOŚĆ
ŚREDNIA
86
MAKSIMUM
93
08:09
MINIMUM
80
15:01
PRĘDKOŚĆ WIATRU
ŚREDNIA
2.2
MAKSIMUM
5.0
03:27
WIND GUST
ŚREDNIA
4.2
MAKSIMUM
8.6
03:27
KIERUNEK WIATRU
PREVAILING
W
57.6%
N
2.1
NE
6.3
E
0.0
SE
0.0
S
6.3
SW
20.8
W
57.6
NW
5.6
OPADY
OPADY GODZINA
0.9
OPADY DZIENNE
3.1
TEMPERATURA (°C)
MINIMUM
0.6
MAKSIMUM
11.3
ŚREDNIA
5.7
CIŚNIENIE (hpa)
MINIMUM
1014.8
MAKSIMUM
1025.0
ŚREDNIA
1019.9
DEVICE